Terminal Aerodrome Forecast
Issued by NWS Duluth, MN

Home | Current Version | Previous Version | Text Only | Print | Product List | Glossary On
Versions: 1 2 3 4 5 6 7 8 9 10 11 12 13 14 15 16 17 18 19 20 21 22 23 24 25 26 27 28
000
FTUS43 KDLH 052021 AAC
TAFINL
TAF AMD
KINL 052021Z 0520/0618 23012G23KT P6SM VCTS BKN050CB
      TEMPO 0522/0524 3SM TSRA BR
     FM060000 03015KT 6SM -RA VCTS SCT050 BKN070CB
     FM060200 35008KT 4SM BR VCSH OVC025
     FM060900 35004KT P6SM SCT040 OVC100
     FM061300 33007KT P6SM OVC120=

USA.gov is the U.S. government's official web portal to all federal, state and local government web resources and services.